In Rescue
 
Open Full Screen Window  High Contrast Mode
Wind Gusting 20 knots
12
April 19, 2021 9:21 PM EDT
Weather Information
Wind Direction
  280 °
Wind Speed
  12 kt (14 mph)
Wind Gust
  20 kt (23 mph)
Altimeter
29.84 in
Visibility
10 SM
Temperature
00° C
32° F
Dewpoint
-07° C
19° F
Humidity
60%
Sky Condition
Overcast @ 5,000 ft
Broken @ 4,500 ft
Scattered @ 3,300 ft
VFR

METAR KMGN 200121Z AUTO 28012G20KT 10SM SCT033 BKN045 OVC050 00/M07 A2984 RMK AO2 T10051073

FAA Disclaimer: The data displayed is for advisory purposes only and is not to be used for flight planning or operations.